Time;durP1;ratioP1;P1;durP2;ratioP2;P2;SDS_P1;SDS_P2;PMS_P1;PMS_P2;Temp;Humidity;BMP_temperature;BMP_pressure;BME280_temperature;BME280_humidity;BME280_pressure;Samples;Min_cycle;Max_cycle;Signal;HPM_P1;HPM_P2
2022/11/07 00:01:13;;;;;;;1.70;1.10;;;11.70;99.90;;;11.67;100.00;100468.22;5087483;29;20048;-72
2022/11/07 00:03:45;;;;;;;1.48;1.00;;;11.70;99.90;;;11.67;100.00;100473.44;5101992;29;20048;-71
2022/11/07 00:06:18;;;;;;;3.03;0.90;;;11.60;99.90;;;11.65;100.00;100464.69;5087450;29;20099;-71
2022/11/07 00:08:52;;;;;;;1.45;0.80;;;11.60;99.90;;;11.62;100.00;100475.06;5086828;29;20145;-71
2022/11/07 00:11:26;;;;;;;2.22;0.90;;;11.60;99.90;;;11.60;100.00;100466.28;5086106;29;20059;-72
2022/11/07 00:13:58;;;;;;;2.17;1.00;;;11.60;99.90;;;11.55;100.00;100462.69;5087416;29;20040;-72
2022/11/07 00:16:32;;;;;;;1.23;0.82;;;11.50;99.90;;;11.56;100.00;100464.47;5085930;29;20079;-72
2022/11/07 00:19:04;;;;;;;1.02;0.80;;;11.50;99.90;;;11.53;100.00;100466.09;5085565;29;20147;-71
2022/11/07 00:21:38;;;;;;;2.35;0.82;;;11.50;99.90;;;11.49;100.00;100462.53;5087048;29;20131;-71
2022/11/07 00:24:11;;;;;;;2.65;0.82;;;11.50;99.90;;;11.48;100.00;100462.50;5086952;29;20048;-71
2022/11/07 00:26:46;;;;;;;1.80;1.25;;;11.50;99.90;;;11.46;100.00;100465.06;5087147;29;20060;-72
2022/11/07 00:29:20;;;;;;;2.67;0.60;;;11.50;99.90;;;11.45;100.00;100468.50;5087059;29;20064;-71
2022/11/07 00:31:52;;;;;;;1.27;1.00;;;11.50;99.90;;;11.46;100.00;100466.78;5086835;29;20071;-71
2022/11/07 00:34:25;;;;;;;1.80;0.95;;;11.50;99.90;;;11.46;100.00;100467.66;5086926;29;20401;-71
2022/11/07 00:36:57;;;;;;;1.83;0.90;;;11.50;99.90;;;11.43;100.00;100477.16;5086760;29;20091;-71
2022/11/07 00:39:29;;;;;;;1.58;0.60;;;11.50;99.90;;;11.45;100.00;100486.78;5086694;29;20132;-71
2022/11/07 00:42:03;;;;;;;1.88;0.77;;;11.40;99.90;;;11.42;100.00;100489.31;5086843;29;20115;-71
2022/11/07 00:44:35;;;;;;;2.33;0.98;;;11.40;99.90;;;11.43;100.00;100488.47;5086269;29;20125;-70
2022/11/07 00:47:08;;;;;;;1.45;1.20;;;11.40;99.90;;;11.42;100.00;100491.94;5084865;29;20470;-71
2022/11/07 00:49:40;;;;;;;0.90;0.80;;;11.40;99.90;;;11.45;100.00;100492.00;5085186;29;20052;-71
2022/11/07 00:52:12;;;;;;;1.77;1.00;;;11.40;99.90;;;11.42;100.00;100484.09;5086859;29;20048;-71
2022/11/07 00:54:44;;;;;;;1.42;0.98;;;11.40;99.90;;;11.40;100.00;100491.88;5086654;29;20445;-71
2022/11/07 00:57:18;;;;;;;1.95;1.00;;;11.40;99.90;;;11.38;100.00;100500.50;5085176;29;20047;-72
2022/11/07 00:59:50;;;;;;;0.90;0.75;;;11.40;99.90;;;11.40;100.00;100491.00;5086134;29;20048;-71
2022/11/07 01:02:23;;;;;;;1.00;0.90;;;11.40;99.90;;;11.45;100.00;100501.56;5086401;29;20052;-71
2022/11/07 01:05:09;;;;;;;1.35;0.80;;;11.40;99.90;;;11.38;100.00;100500.50;5086358;29;20063;-72
2022/11/07 01:07:41;;;;;;;0.65;0.60;;;11.40;99.90;;;11.33;100.00;100497.78;5086132;29;20144;-72
2022/11/07 01:10:13;;;;;;;1.60;0.70;;;11.40;99.90;;;11.32;100.00;100500.34;5086316;29;20103;-71
2022/11/07 01:12:47;;;;;;;1.63;1.00;;;11.40;99.90;;;11.33;100.00;100489.06;5086254;29;20103;-71
2022/11/07 01:15:19;;;;;;;1.75;0.90;;;11.30;99.90;;;11.33;100.00;100494.28;5086247;29;20075;-72
2022/11/07 01:17:52;;;;;;;1.60;1.00;;;11.30;99.90;;;11.33;100.00;100497.78;5084445;29;20498;-71
2022/11/07 01:20:24;;;;;;;1.05;0.77;;;11.40;99.90;;;11.33;100.00;100503.00;5103227;29;20055;-71
2022/11/07 01:22:56;;;;;;;1.55;0.85;;;11.30;99.90;;;11.31;100.00;100504.69;5105481;29;20118;-71
2022/11/07 01:25:29;;;;;;;1.67;1.00;;;11.30;99.90;;;11.28;100.00;100496.78;5105672;29;20099;-71
2022/11/07 01:28:02;;;;;;;2.38;0.80;;;11.30;99.90;;;11.28;100.00;100503.69;5105373;29;20048;-71
2022/11/07 01:30:38;;;;;;;1.05;0.80;;;11.30;99.90;;;11.30;100.00;100507.25;5105428;29;20110;-71
2022/11/07 01:33:11;;;;;;;2.45;0.95;;;11.30;99.90;;;11.31;100.00;100498.59;5105292;29;20496;-72
2022/11/07 01:35:43;;;;;;;1.00;0.73;;;11.30;99.90;;;11.32;100.00;100505.56;5105430;29;20051;-71
2022/11/07 01:38:15;;;;;;;1.30;0.90;;;11.30;99.90;;;11.34;100.00;100507.34;5104965;29;20099;-72
2022/11/07 01:43:49;;;;;;;0.65;0.63;;;11.40;99.90;;;11.36;100.00;100500.47;5105300;29;20047;-71
2022/11/07 01:46:26;;;;;;;1.10;0.70;;;11.40;99.90;;;11.34;100.00;100503.88;5105179;29;20048;-71
2022/11/07 01:49:06;;;;;;;1.00;0.88;;;11.30;99.90;;;11.33;100.00;100500.38;5104800;29;20051;-71
2022/11/07 01:51:45;;;;;;;0.88;0.60;;;11.30;99.90;;;11.31;100.00;100504.69;5105124;29;20126;-71
2022/11/07 01:54:21;;;;;;;1.45;0.75;;;11.30;99.90;;;11.31;100.00;100503.81;5105044;29;20549;-71
2022/11/07 01:56:57;;;;;;;2.00;0.93;;;11.30;99.90;;;11.29;100.00;100495.06;5104765;29;20040;-71
2022/11/07 01:59:32;;;;;;;1.48;0.70;;;11.30;99.90;;;11.26;100.00;100492.34;5104513;29;20439;-71
2022/11/07 02:02:04;;;;;;;0.95;0.70;;;11.30;99.90;;;11.26;100.00;100492.34;5103468;29;20146;-71
2022/11/07 02:04:37;;;;;;;0.80;0.73;;;11.30;99.90;;;11.23;100.00;100489.66;5103344;29;20052;-71
2022/11/07 02:07:16;;;;;;;0.60;0.60;;;11.30;99.90;;;11.21;100.00;100486.13;5105224;29;20040;-71
2022/11/07 02:09:50;;;;;;;0.75;0.70;;;11.20;99.90;;;11.19;100.00;100485.19;5104962;29;20536;-71
2022/11/07 02:12:25;;;;;;;1.65;0.80;;;11.20;99.90;;;11.17;100.00;100489.50;5104771;29;20048;-70
2022/11/07 02:14:58;;;;;;;1.25;0.82;;;11.20;99.90;;;11.17;100.00;100484.28;5104691;29;20044;-71
2022/11/07 02:17:31;;;;;;;0.57;0.57;;;11.20;99.90;;;11.16;100.00;100482.53;5104567;29;20040;-71
2022/11/07 02:20:04;;;;;;;1.58;0.90;;;11.20;99.90;;;11.13;100.00;100488.53;5104265;29;20051;-71
2022/11/07 02:22:45;;;;;;;2.55;1.23;;;11.10;99.90;;;11.13;100.00;100478.09;5104495;29;20055;-71
2022/11/07 02:25:20;;;;;;;3.25;1.00;;;11.20;99.90;;;11.14;100.00;100488.56;5104696;29;20453;-72
2022/11/07 02:27:57;;;;;;;1.70;1.02;;;11.20;99.90;;;11.16;100.00;100488.63;5104400;29;20063;-71
2022/11/07 02:30:33;;;;;;;0.70;0.65;;;11.10;99.90;;;11.16;100.00;100482.53;5104319;29;20111;-71
2022/11/07 02:33:17;;;;;;;1.42;0.80;;;11.20;99.90;;;11.16;100.00;100487.75;5119133;29;20048;-71
2022/11/07 02:35:51;;;;;;;0.80;0.70;;;11.20;99.90;;;11.15;100.00;100489.47;5104640;29;20057;-71
2022/11/07 02:38:28;;;;;;;1.65;0.80;;;11.10;99.90;;;11.16;100.00;100487.75;5102691;29;20044;-71
2022/11/07 02:41:07;;;;;;;2.05;0.63;;;11.20;99.90;;;11.16;100.00;100482.53;5104251;29;20486;-71
2022/11/07 02:43:45;;;;;;;1.05;0.73;;;11.20;99.90;;;11.18;100.00;100480.81;5104480;29;20083;-71
2022/11/07 02:46:17;;;;;;;3.13;1.02;;;11.20;99.90;;;11.17;100.00;100479.06;5104290;29;20130;-71
2022/11/07 02:48:54;;;;;;;1.08;0.80;;;11.20;99.90;;;11.17;100.00;100484.28;5104082;29;20048;-72
2022/11/07 02:51:26;;;;;;;1.45;0.70;;;11.20;99.90;;;11.18;100.00;100475.59;5102733;29;20056;-71
2022/11/07 02:53:59;;;;;;;3.17;0.90;;;11.20;99.90;;;11.20;100.00;100481.75;5102916;29;20066;-71
2022/11/07 02:56:32;;;;;;;2.03;0.90;;;11.20;99.90;;;11.19;100.00;100472.16;5104224;29;20079;-71
2022/11/07 02:59:04;;;;;;;2.70;0.85;;;11.20;99.90;;;11.22;100.00;100467.91;5102576;29;20039;-72
2022/11/07 03:01:37;;;;;;;2.00;0.90;;;11.20;99.90;;;11.23;100.00;100472.28;5102874;29;20068;-72
2022/11/07 03:04:09;;;;;;;1.10;1.00;;;11.20;99.90;;;11.22;100.00;100477.47;5103873;29;20052;-71
2022/11/07 03:06:41;;;;;;;2.28;0.80;;;11.20;99.90;;;11.22;100.00;100482.69;5102890;29;20067;-71
2022/11/07 03:09:14;;;;;;;3.17;1.30;;;11.20;99.90;;;11.25;100.00;100482.75;5104344;29;20062;-71
2022/11/07 03:11:47;;;;;;;1.15;0.90;;;11.20;99.90;;;11.24;100.00;100481.00;5108195;29;20079;-71
2022/11/07 03:14:20;;;;;;;2.05;1.00;;;11.20;99.90;;;11.24;100.00;100478.38;5108034;29;20405;-71
2022/11/07 03:16:52;;;;;;;1.67;1.02;;;11.30;99.90;;;11.23;100.00;100474.03;5108137;29;20381;-71
2022/11/07 03:19:24;;;;;;;1.95;1.02;;;11.30;99.90;;;11.23;100.00;100476.63;5107484;29;20063;-70
2022/11/07 03:21:56;;;;;;;1.98;0.82;;;11.30;99.90;;;11.24;100.00;100481.00;5107942;29;20099;-71
2022/11/07 03:24:31;;;;;;;2.63;1.10;;;11.30;99.90;;;11.24;100.00;100487.09;5106445;29;20086;-72
2022/11/07 03:27:04;;;;;;;2.15;0.90;;;11.30;99.90;;;11.24;100.00;100491.44;5106413;29;20520;-71
2022/11/07 03:29:37;;;;;;;1.23;0.80;;;11.20;99.90;;;11.24;100.00;100483.59;5106303;29;20057;-71
2022/11/07 03:32:09;;;;;;;3.58;1.02;;;11.30;99.90;;;11.24;100.00;100491.44;5107728;29;20071;-71
2022/11/07 03:34:41;;;;;;;1.08;0.82;;;11.20;99.90;;;11.24;100.00;100491.44;5107575;29;20056;-71
2022/11/07 03:37:14;;;;;;;1.25;0.90;;;11.30;99.90;;;11.23;100.00;100495.78;5106053;29;20050;-71
2022/11/07 03:39:46;;;;;;;1.58;0.85;;;11.20;99.90;;;11.23;100.00;100489.66;5107432;29;20071;-71
2022/11/07 03:42:20;;;;;;;1.77;1.10;;;11.20;99.90;;;11.25;100.00;100503.63;5106480;29;20060;-72
2022/11/07 03:44:52;;;;;;;5.07;1.10;;;11.20;99.90;;;11.25;100.00;100496.69;5107349;29;20151;-71
2022/11/07 03:47:24;;;;;;;1.88;0.90;;;11.20;99.90;;;11.26;100.00;100506.28;5106109;29;20063;-71
2022/11/07 03:49:56;;;;;;;1.73;0.93;;;11.30;99.90;;;11.26;100.00;100497.56;5106879;29;20114;-70
2022/11/07 03:52:29;;;;;;;2.08;0.80;;;11.30;99.90;;;11.28;100.00;100508.91;5107223;29;20054;-71
2022/11/07 03:55:01;;;;;;;1.25;0.95;;;11.30;99.90;;;11.29;100.00;100495.06;5107327;29;20134;-72
2022/11/07 03:57:35;;;;;;;1.50;0.82;;;11.30;99.90;;;11.31;100.00;100498.59;5107302;29;20031;-70
2022/11/07 04:00:09;;;;;;;1.83;0.98;;;11.30;99.90;;;11.31;100.00;100495.97;5106896;29;20122;-71
2022/11/07 04:02:44;;;;;;;3.25;1.02;;;11.30;99.90;;;11.30;100.00;100487.25;5107280;29;20587;-71
2022/11/07 04:05:16;;;;;;;4.53;1.02;;;11.30;99.90;;;11.32;100.00;100489.91;5107031;29;20532;-71
2022/11/07 04:07:48;;;;;;;2.65;1.05;;;11.30;99.90;;;11.33;100.00;100489.06;5106703;29;20127;-71
2022/11/07 04:10:21;;;;;;;3.08;1.08;;;11.30;99.90;;;11.30;100.00;100497.69;5107048;29;20094;-72
2022/11/07 04:18:35;;;;;;;1.77;1.10;;;11.30;99.90;;;11.28;100.00;100509.84;5106370;29;20128;-71
2022/11/07 04:21:07;;;;;;;2.60;1.15;;;11.30;99.90;;;11.29;100.00;100511.59;5106573;29;20520;-71
2022/11/07 04:23:39;;;;;;;1.08;0.90;;;11.30;99.90;;;11.26;100.00;100511.50;5106696;29;20420;-71
2022/11/07 04:29:11;;;;;;;1.80;1.00;;;11.30;99.90;;;11.26;100.00;100502.78;5113346;23;20416;-70
2022/11/07 04:31:45;;;;;;;1.83;0.77;;;11.30;99.90;;;11.25;100.00;100501.03;5099324;29;20510;-70
2022/11/07 04:34:20;;;;;;;5.25;1.30;;;11.30;99.90;;;11.25;100.00;100506.25;5086327;29;20465;-71
2022/11/07 04:36:53;;;;;;;1.17;0.90;;;11.20;99.90;;;11.23;100.00;100510.53;5085067;29;20658;-70
2022/11/07 04:39:25;;;;;;;2.55;1.20;;;11.20;99.90;;;11.23;100.00;100505.31;5100254;29;20137;-71
2022/11/07 04:41:58;;;;;;;3.50;1.05;;;11.20;99.90;;;11.22;100.00;100503.56;5086320;29;20052;-71
2022/11/07 04:44:32;;;;;;;2.25;1.02;;;11.20;99.90;;;11.21;100.00;100512.19;5093249;29;20071;-71
2022/11/07 04:47:04;;;;;;;2.90;1.10;;;11.20;99.90;;;11.22;100.00;100508.78;5086628;29;20052;-70
2022/11/07 04:49:36;;;;;;;1.50;1.00;;;11.20;99.90;;;11.20;100.00;100515.66;5086412;29;20044;-71
2022/11/07 04:52:10;;;;;;;3.35;1.17;;;11.20;99.90;;;11.18;100.00;100506.91;5101516;29;20442;-71
2022/11/07 04:54:42;;;;;;;2.42;1.00;;;11.20;99.90;;;11.17;100.00;100502.53;5086517;29;20040;-72
2022/11/07 04:57:15;;;;;;;2.85;1.00;;;11.20;99.90;;;11.13;100.00;100505.06;5086422;29;20111;-71
2022/11/07 04:59:48;;;;;;;2.97;1.25;;;11.20;99.90;;;11.12;100.00;100512.84;5100613;29;20135;-70
2022/11/07 05:02:24;;;;;;;2.72;1.27;;;11.10;99.90;;;11.12;100.00;100505.91;5086361;29;20122;-71
2022/11/07 05:04:56;;;;;;;2.50;1.30;;;11.10;99.90;;;11.13;100.00;100515.47;5084956;29;20048;-71
2022/11/07 05:07:28;;;;;;;3.65;1.42;;;11.10;99.90;;;11.12;100.00;100516.34;5086543;29;20048;-71
2022/11/07 05:10:01;;;;;;;2.45;1.13;;;11.10;99.90;;;11.13;100.00;100505.06;5086189;29;20103;-71
2022/11/07 05:12:33;;;;;;;1.77;1.05;;;11.10;99.90;;;11.15;100.00;100502.50;5086231;29;20052;-72
2022/11/07 05:15:08;;;;;;;3.15;1.20;;;11.10;99.90;;;11.17;100.00;100503.44;5086313;29;20083;-71
2022/11/07 05:17:40;;;;;;;2.42;1.10;;;11.10;99.90;;;11.13;100.00;100505.06;5085970;29;20047;-71
2022/11/07 05:20:30;;;;;;;3.13;1.00;;;11.10;99.90;;;11.13;100.00;100509.38;5086169;29;20079;-71
2022/11/07 05:23:16;;;;;;;3.58;1.08;;;11.10;99.90;;;11.12;100.00;100518.06;5086088;29;20051;-71
2022/11/07 05:25:50;;;;;;;2.35;1.00;;;11.10;99.90;;;11.12;100.00;100528.50;5085905;29;20052;-71
2022/11/07 05:28:26;;;;;;;3.72;1.13;;;11.10;99.90;;;11.10;100.00;100520.63;5085735;29;20072;-71
2022/11/07 05:31:02;;;;;;;4.05;1.30;;;11.10;99.90;;;11.12;100.00;100523.28;5085869;29;20398;-71
2022/11/07 05:33:35;;;;;;;4.32;1.60;;;11.10;99.90;;;11.12;100.00;100524.16;5100266;29;20116;-71
2022/11/07 05:36:13;;;;;;;5.40;1.20;;;11.10;99.90;;;11.10;100.00;100522.34;5085769;29;20051;-71
2022/11/07 05:38:48;;;;;;;2.65;1.17;;;11.10;99.90;;;11.09;100.00;100524.09;5084276;29;20088;-70
2022/11/07 05:41:22;;;;;;;3.58;1.23;;;11.10;99.90;;;11.10;100.00;100522.34;5100303;29;20139;-71
2022/11/07 05:43:54;;;;;;;3.20;1.50;;;11.10;99.90;;;11.08;100.00;100517.09;5085717;29;20099;-70
2022/11/07 05:46:28;;;;;;;3.78;1.73;;;11.10;99.90;;;11.10;100.00;100520.63;5085479;29;20051;-71
2022/11/07 05:49:00;;;;;;;2.70;1.50;;;11.10;99.90;;;11.11;100.00;100521.50;5085328;29;20127;-71
2022/11/07 05:51:32;;;;;;;4.57;1.73;;;11.10;99.90;;;11.11;100.00;100522.41;5085536;29;20079;-71
2022/11/07 05:54:05;;;;;;;5.45;1.70;;;11.10;99.90;;;11.12;100.00;100521.56;5099962;29;20048;-70
2022/11/07 05:56:37;;;;;;;4.95;1.85;;;11.10;99.90;;;11.13;100.00;100525.91;5085400;29;20529;-72
2022/11/07 05:59:10;;;;;;;5.88;1.80;;;11.10;99.90;;;11.14;100.00;100527.69;5084841;29;20036;-71
2022/11/07 06:01:44;;;;;;;3.22;1.70;;;11.20;99.90;;;11.18;100.00;100527.78;5085309;29;20044;-71
2022/11/07 06:04:16;;;;;;;2.40;1.50;;;11.20;99.90;;;11.19;100.00;100529.56;5085343;29;20501;-70
2022/11/07 06:06:48;;;;;;;3.38;1.45;;;11.10;99.90;;;11.23;100.00;100527.09;5085266;29;20079;-70
2022/11/07 06:09:20;;;;;;;1.95;1.10;;;11.20;99.90;;;11.26;100.00;100528.88;5084885;29;20126;-70
2022/11/07 06:11:53;;;;;;;3.03;1.30;;;11.20;99.90;;;11.26;100.00;100536.69;5085173;29;20047;-70
2022/11/07 06:14:25;;;;;;;2.30;1.38;;;11.30;99.90;;;11.26;100.00;100532.38;5085114;29;20087;-70
2022/11/07 06:16:59;;;;;;;2.08;1.02;;;11.30;99.90;;;11.28;100.00;100535.00;5085398;29;20044;-70
2022/11/07 06:19:31;;;;;;;4.78;1.73;;;11.30;99.90;;;11.29;100.00;100536.81;5099528;29;20044;-71
2022/11/07 06:22:03;;;;;;;3.50;1.33;;;11.30;99.90;;;11.31;100.00;100541.22;5084908;29;20055;-70
2022/11/07 06:24:36;;;;;;;2.40;1.02;;;11.30;99.90;;;11.34;100.00;100541.28;5085196;29;20052;-70
2022/11/07 06:27:08;;;;;;;3.00;0.93;;;11.30;99.90;;;11.37;100.00;100540.50;5085060;29;20052;-70
2022/11/07 06:29:40;;;;;;;3.60;1.10;;;11.40;99.90;;;11.42;100.00;100541.53;5084531;29;20095;-70
2022/11/07 06:32:14;;;;;;;2.65;1.20;;;11.40;99.90;;;11.45;100.00;100546.81;5084934;29;20052;-70
2022/11/07 06:34:48;;;;;;;5.45;1.20;;;11.40;99.90;;;11.49;100.00;100556.50;5084851;29;20044;-70
2022/11/07 06:37:20;;;;;;;2.90;1.08;;;11.50;99.90;;;11.52;100.00;100545.25;5084763;29;20118;-71
2022/11/07 06:39:52;;;;;;;4.43;1.25;;;11.50;99.90;;;11.55;100.00;100556.66;5084318;29;20501;-71
2022/11/07 06:42:26;;;;;;;3.33;1.02;;;11.50;99.90;;;11.58;100.00;100550.63;5084709;29;20048;-70
2022/11/07 06:44:58;;;;;;;5.30;1.48;;;11.50;99.90;;;11.62;100.00;100556.00;5084052;29;20524;-71
2022/11/07 06:47:32;;;;;;;4.00;1.40;;;11.60;99.90;;;11.65;100.00;100558.66;5084684;29;20070;-71
2022/11/07 06:50:05;;;;;;;6.28;2.22;;;11.60;99.90;;;11.69;100.00;100560.53;5099241;29;20071;-70
2022/11/07 06:52:37;;;;;;;3.95;0.93;;;11.70;99.90;;;11.73;100.00;100566.69;5085050;29;20135;-70
2022/11/07 06:55:10;;;;;;;15.70;1.85;;;11.70;99.90;;;11.76;100.00;100572.03;5084684;29;20092;-70
2022/11/07 06:57:42;;;;;;;7.25;1.35;;;11.70;99.90;;;11.80;100.00;100567.75;5098902;29;20115;-71
2022/11/07 07:00:16;;;;;;;7.63;1.35;;;11.70;99.90;;;11.82;100.00;100573.94;5084845;29;20044;-71
2022/11/07 07:02:50;;;;;;;13.45;1.67;;;11.80;99.90;;;11.86;100.00;100560.09;5084555;29;20049;-69
2022/11/07 07:05:22;;;;;;;7.38;1.50;;;11.80;99.90;;;11.89;100.00;100568.91;5084084;29;20048;-58
2022/11/07 07:07:55;;;;;;;8.13;1.50;;;11.80;99.90;;;11.93;100.00;100577.69;5083533;29;20569;-59
2022/11/07 07:10:27;;;;;;;7.00;1.70;;;11.80;99.90;;;11.96;100.00;100577.78;5084362;29;20393;-59
2022/11/07 07:13:00;;;;;;;5.22;1.30;;;11.90;99.90;;;12.00;100.00;100578.75;5083762;29;20051;-60
2022/11/07 07:15:33;;;;;;;8.60;1.38;;;11.90;99.90;;;12.04;100.00;100584.09;5083813;29;20040;-58
2022/11/07 07:18:06;;;;;;;5.22;1.40;;;12.00;99.90;;;12.08;100.00;100583.34;5083217;29;20446;-59
2022/11/07 07:20:39;;;;;;;4.72;1.20;;;12.00;99.90;;;12.10;100.00;100589.47;5083799;29;20602;-59
2022/11/07 07:23:11;;;;;;;6.05;1.48;;;12.00;99.90;;;12.14;100.00;100590.44;5083991;29;20438;-60
2022/11/07 07:25:43;;;;;;;4.60;1.13;;;12.00;99.90;;;12.18;100.00;100597.50;5083965;29;20063;-60
2022/11/07 07:28:16;;;;;;;4.82;1.27;;;12.00;99.90;;;12.22;100.00;100594.13;5083624;29;20422;-60
2022/11/07 07:30:48;;;;;;;3.83;1.00;;;12.10;99.90;;;12.26;100.00;100592.47;5083747;29;20052;-59
2022/11/07 07:33:22;;;;;;;6.75;1.60;;;12.10;99.90;;;12.34;100.00;100598.78;5083586;29;20079;-60
2022/11/07 07:35:54;;;;;;;4.20;1.20;;;12.20;99.90;;;12.39;100.00;100607.63;5083752;29;20056;-60
2022/11/07 07:38:26;;;;;;;3.92;0.93;;;12.20;99.90;;;12.44;100.00;100608.59;5083187;29;20079;-60
2022/11/07 07:40:59;;;;;;;2.42;1.00;;;12.30;99.90;;;12.49;100.00;100615.72;5083673;29;20517;-60
2022/11/07 07:43:31;;;;;;;4.95;0.93;;;12.30;99.90;;;12.56;100.00;100616.75;5082186;29;20044;-60
2022/11/07 07:46:06;;;;;;;5.38;1.05;;;12.40;99.90;;;12.61;100.00;100615.13;5086582;29;20123;-59
2022/11/07 07:48:40;;;;;;;;;;;12.40;99.90;;;12.64;100.00;100620.41;5082938;29;20109;-59
2022/11/07 07:51:12;;;;;;;5.15;1.45;;;12.50;99.90;;;12.70;100.00;100620.56;5064233;29;20009;-60
2022/11/07 07:53:44;;;;;;;6.18;1.00;;;12.50;99.90;;;12.75;100.00;100618.94;5063072;29;20075;-60
2022/11/07 07:56:16;;;;;;;2.15;0.73;;;12.60;99.90;;;12.78;100.00;100623.38;5080632;29;20061;-59
2022/11/07 07:58:49;;;;;;;4.63;1.30;;;12.60;99.90;;;12.82;100.00;100614.72;5079794;29;20116;-60
2022/11/07 08:01:21;;;;;;;3.15;1.00;;;12.70;99.90;;;12.85;100.00;100616.56;5079796;29;20418;-60
2022/11/07 08:03:54;;;;;;;4.78;1.02;;;12.70;99.90;;;12.85;100.00;100613.94;5066483;29;20438;-59
2022/11/07 08:06:26;;;;;;;5.43;1.10;;;12.70;99.90;;;12.87;100.00;100612.22;5072862;29;20070;-58
2022/11/07 08:08:58;;;;;;;2.65;1.08;;;12.80;99.90;;;12.92;100.00;100608.88;5073058;29;20120;-58
2022/11/07 08:11:31;;;;;;;5.57;1.50;;;12.80;99.90;;;12.94;100.00;100616.75;5066644;29;20410;-57
2022/11/07 08:14:03;;;;;;;3.00;0.95;;;12.80;99.90;;;12.99;100.00;100612.50;5085697;29;20048;-57
2022/11/07 08:16:35;;;;;;;3.88;0.80;;;12.80;99.90;;;13.09;100.00;100622.31;5086613;29;20048;-56
2022/11/07 08:19:09;;;;;;;5.22;1.00;;;12.90;99.90;;;13.20;100.00;100623.47;5097608;29;20123;-57
2022/11/07 08:21:41;;;;;;;5.10;0.88;;;13.00;99.90;;;13.30;100.00;100625.44;5105395;29;20572;-56
2022/11/07 08:24:13;;;;;;;5.90;1.35;;;13.10;99.90;;;13.39;100.00;100623.84;5104718;29;20051;-56
2022/11/07 08:26:45;;;;;;;5.00;1.00;;;13.20;99.90;;;13.47;100.00;100627.50;5105884;29;20144;-56
2022/11/07 08:29:17;;;;;;;5.78;1.00;;;13.30;99.90;;;13.48;100.00;100622.28;5105420;29;20043;-58
2022/11/07 08:31:50;;;;;;;3.38;0.93;;;13.30;99.90;;;13.50;100.00;100622.34;5105954;29;20047;-58
2022/11/07 08:34:23;;;;;;;8.70;1.20;;;13.30;99.90;;;13.51;100.00;100624.13;5105655;29;20106;-57
2022/11/07 08:36:55;;;;;;;4.22;0.90;;;13.30;99.90;;;13.50;100.00;100627.59;5104465;29;20083;-57
2022/11/07 08:39:28;;;;;;;3.38;0.85;;;13.30;99.90;;;13.51;100.00;100619.75;5104584;29;20043;-57
2022/11/07 08:42:00;;;;;;;3.03;0.80;;;13.40;99.90;;;13.56;100.00;100622.44;5105296;29;20043;-57
2022/11/07 08:44:33;;;;;;;1.58;0.70;;;13.40;99.90;;;13.61;100.00;100631.28;5105210;29;20059;-58
2022/11/07 08:47:06;;;;;;;3.72;1.10;;;13.40;99.90;;;13.72;100.00;100628.88;5105261;29;20051;-58
2022/11/07 08:49:40;;;;;;;4.32;0.90;;;13.50;99.90;;;13.75;100.00;100635.03;5079406;29;20048;-58
2022/11/07 08:52:12;;;;;;;3.38;0.90;;;13.50;99.90;;;13.79;100.00;100636.88;5069865;29;20048;-59
2022/11/07 08:54:44;;;;;;;4.10;0.80;;;13.60;99.90;;;13.85;100.00;100630.88;5065972;29;20056;-60
2022/11/07 08:57:16;;;;;;;2.50;1.02;;;13.60;99.90;;;13.87;100.00;100638.75;5065864;29;20052;-60
2022/11/07 08:59:48;;;;;;;3.40;0.88;;;13.70;99.90;;;13.92;100.00;100626.63;5065643;29;20053;-59
2022/11/07 09:02:20;;;;;;;2.63;1.40;;;13.70;99.90;;;14.01;100.00;100637.28;5065237;29;20080;-59
2022/11/07 09:04:53;;;;;;;3.25;0.90;;;13.80;99.90;;;14.04;100.00;100642.59;5065223;29;20052;-59
2022/11/07 09:07:26;;;;;;;3.88;0.68;;;13.90;99.90;;;14.05;100.00;100639.09;5064894;29;20054;-59
2022/11/07 09:09:58;;;;;;;1.73;0.80;;;13.90;99.90;;;14.04;100.00;100637.34;5065817;29;20076;-57
2022/11/07 09:12:30;;;;;;;2.80;0.75;;;13.90;99.90;;;14.06;100.00;100640.88;5065860;29;20049;-57
2022/11/07 09:15:02;;;;;;;3.00;0.80;;;13.90;99.90;;;14.00;100.00;100641.63;5066075;29;20056;-57
2022/11/07 09:17:34;;;;;;;3.20;0.80;;;13.80;99.90;;;13.98;100.00;100645.09;5064843;29;20048;-57
2022/11/07 09:20:10;;;;;;;1.92;0.50;;;13.80;99.90;;;13.99;100.00;100639.00;5065676;29;20044;-58
2022/11/07 09:22:42;;;;;;;2.30;0.80;;;13.80;99.90;;;13.99;100.00;100649.47;5065941;29;20053;-58
2022/11/07 09:25:14;;;;;;;3.30;0.85;;;13.80;99.90;;;13.98;100.00;100645.09;5065885;29;20044;-57
2022/11/07 09:27:47;;;;;;;3.05;0.77;;;13.80;99.90;;;13.99;100.00;100649.47;5065433;29;20505;-56
2022/11/07 09:30:20;;;;;;;3.40;0.70;;;13.80;99.90;;;14.04;100.00;100653.97;5065910;29;20044;-57
2022/11/07 09:32:55;;;;;;;2.53;0.70;;;13.80;99.90;;;14.10;100.00;100653.19;5065765;29;20044;-58
2022/11/07 09:35:29;;;;;;;3.28;0.60;;;13.80;99.90;;;14.11;100.00;100658.44;5065932;29;20532;-57
2022/11/07 09:38:01;;;;;;;3.60;0.73;;;13.90;99.90;;;14.13;100.00;100653.22;5065272;29;20053;-57
2022/11/07 09:40:45;;;;;;;2.85;0.70;;;13.90;99.90;;;14.13;100.00;100648.00;5065452;29;20045;-58
2022/11/07 09:43:33;;;;;;;3.92;0.63;;;13.90;99.90;;;14.15;100.00;100651.53;5065689;29;20053;-57
2022/11/07 09:46:22;;;;;;;2.40;0.57;;;13.90;99.90;;;14.22;100.00;100656.03;5065527;29;20529;-57
2022/11/07 09:49:01;;;;;;;0.93;0.60;;;14.00;99.90;;;14.24;100.00;100661.31;5065250;29;20044;-58
2022/11/07 09:51:38;;;;;;;1.73;0.75;;;14.00;99.90;;;14.25;100.00;100658.69;5065471;29;20048;-58
2022/11/07 09:54:15;;;;;;;1.73;0.52;;;14.00;99.90;;;14.31;100.00;100669.28;5065497;29;20049;-58
2022/11/07 09:56:47;;;;;;;3.83;0.60;;;14.10;99.90;;;14.37;100.00;100669.41;5065277;29;20135;-58
2022/11/07 09:59:24;;;;;;;3.45;0.63;;;14.10;99.90;;;14.45;100.00;100685.25;5065414;29;20036;-57
2022/11/07 10:01:56;;;;;;;3.10;0.90;;;14.20;99.90;;;14.55;100.00;100683.72;5065594;29;20056;-59
2022/11/07 10:04:29;;;;;;;2.15;0.70;;;14.30;99.90;;;14.59;100.00;100686.41;5065603;29;20514;-57
2022/11/07 10:07:08;;;;;;;2.45;0.60;;;14.30;99.90;;;14.62;100.00;100690.84;5065749;29;20048;-58
2022/11/07 10:09:51;;;;;;;4.97;0.70;;;14.30;99.90;;;14.68;100.00;100688.31;5065253;29;20037;-58
2022/11/07 10:12:44;;;;;;;4.32;0.73;;;14.40;99.90;;;14.71;100.00;100685.72;5065325;29;20056;-57
2022/11/07 10:15:26;;;;;;;4.57;0.80;;;14.40;99.90;;;14.71;100.00;100695.34;5065519;29;20052;-56
2022/11/07 10:18:12;;;;;;;2.20;0.65;;;14.50;99.90;;;14.70;100.00;100696.22;5064806;29;20056;-64
2022/11/07 10:20:57;;;;;;;3.90;0.82;;;14.50;99.90;;;14.82;100.00;100701.66;5064854;29;20468;-57
2022/11/07 10:23:48;;;;;;;2.75;0.70;;;14.60;99.90;;;14.82;100.00;100691.16;5064834;29;20072;-59
2022/11/07 10:26:24;;;;;;;4.10;0.90;;;14.60;99.90;;;14.82;100.00;100697.28;5073856;29;20131;-58
2022/11/07 10:29:01;;;;;;;3.42;0.77;;;14.60;99.90;;;14.84;100.00;100686.81;5121731;23;20054;-57
2022/11/07 10:31:39;;;;;;;6.10;0.65;;;14.60;99.90;;;14.87;100.00;100687.75;5143443;28;20058;-56
2022/11/07 10:34:21;;;;;;;5.10;0.88;;;14.60;99.90;;;14.91;100.00;100684.31;5143401;28;20053;-56
2022/11/07 10:36:53;;;;;;;1.83;0.40;;;14.70;99.90;;;15.00;100.00;100688.84;5143304;28;20047;-57
2022/11/07 10:39:30;;;;;;;1.45;0.52;;;14.70;99.90;;;15.10;100.00;100698.59;5143426;28;20042;-56
2022/11/07 10:42:07;;;;;;;2.88;0.60;;;14.80;99.90;;;15.21;100.00;100688.25;5143305;28;20043;-58
2022/11/07 10:44:42;;;;;;;3.63;0.70;;;14.90;99.90;;;15.35;100.00;100689.31;5143144;28;20051;-57